sensor_id;sensor_type;location;lat;lon;timestamp;P1;durP1;ratioP1;P2;durP2;ratioP2
37945;SDS011;23769;52.478;13.448;2024-02-21T00:02:22;19.02;;;5.10;;
37945;SDS011;23769;52.478;13.448;2024-02-21T00:04:50;19.27;;;5.40;;
37945;SDS011;23769;52.478;13.448;2024-02-21T00:07:17;18.63;;;5.60;;
37945;SDS011;23769;52.478;13.448;2024-02-21T00:09:45;18.08;;;5.20;;
37945;SDS011;23769;52.478;13.448;2024-02-21T00:12:12;16.75;;;4.60;;
37945;SDS011;23769;52.478;13.448;2024-02-21T00:14:40;17.08;;;4.85;;
37945;SDS011;23769;52.478;13.448;2024-02-21T00:17:07;13.57;;;4.80;;
37945;SDS011;23769;52.478;13.448;2024-02-21T00:19:34;18.90;;;5.15;;
37945;SDS011;23769;52.478;13.448;2024-02-21T00:22:03;20.55;;;5.75;;
37945;SDS011;23769;52.478;13.448;2024-02-21T00:24:31;13.60;;;4.38;;
37945;SDS011;23769;52.478;13.448;2024-02-21T00:26:58;21.02;;;5.57;;
37945;SDS011;23769;52.478;13.448;2024-02-21T00:29:25;21.92;;;5.55;;
37945;SDS011;23769;52.478;13.448;2024-02-21T00:31:52;18.33;;;6.32;;
37945;SDS011;23769;52.478;13.448;2024-02-21T00:34:19;24.63;;;5.55;;
37945;SDS011;23769;52.478;13.448;2024-02-21T00:36:47;18.55;;;5.25;;
37945;SDS011;23769;52.478;13.448;2024-02-21T00:39:16;15.13;;;4.78;;
37945;SDS011;23769;52.478;13.448;2024-02-21T00:41:44;14.55;;;4.50;;
37945;SDS011;23769;52.478;13.448;2024-02-21T00:44:11;15.10;;;5.03;;
37945;SDS011;23769;52.478;13.448;2024-02-21T00:46:38;20.95;;;5.50;;
37945;SDS011;23769;52.478;13.448;2024-02-21T00:49:05;15.25;;;4.03;;
37945;SDS011;23769;52.478;13.448;2024-02-21T00:51:33;18.48;;;5.45;;
37945;SDS011;23769;52.478;13.448;2024-02-21T00:54:00;17.95;;;4.82;;
37945;SDS011;23769;52.478;13.448;2024-02-21T00:56:29;17.95;;;5.45;;
37945;SDS011;23769;52.478;13.448;2024-02-21T00:58:56;15.93;;;4.63;;
37945;SDS011;23769;52.478;13.448;2024-02-21T01:01:23;14.07;;;4.50;;
37945;SDS011;23769;52.478;13.448;2024-02-21T01:03:51;19.65;;;5.97;;
37945;SDS011;23769;52.478;13.448;2024-02-21T01:06:18;19.23;;;5.32;;
37945;SDS011;23769;52.478;13.448;2024-02-21T01:08:46;19.08;;;5.00;;
37945;SDS011;23769;52.478;13.448;2024-02-21T01:11:13;17.27;;;4.25;;
37945;SDS011;23769;52.478;13.448;2024-02-21T01:13:42;16.85;;;4.93;;
37945;SDS011;23769;52.478;13.448;2024-02-21T01:16:10;23.02;;;5.03;;
37945;SDS011;23769;52.478;13.448;2024-02-21T01:18:37;12.77;;;3.70;;
37945;SDS011;23769;52.478;13.448;2024-02-21T01:21:06;12.27;;;4.20;;
37945;SDS011;23769;52.478;13.448;2024-02-21T01:23:35;14.25;;;4.65;;
37945;SDS011;23769;52.478;13.448;2024-02-21T01:26:02;13.77;;;4.30;;
37945;SDS011;23769;52.478;13.448;2024-02-21T01:28:30;13.88;;;4.40;;
37945;SDS011;23769;52.478;13.448;2024-02-21T01:30:58;11.63;;;3.85;;
37945;SDS011;23769;52.478;13.448;2024-02-21T01:33:26;17.23;;;4.15;;
37945;SDS011;23769;52.478;13.448;2024-02-21T01:35:55;16.50;;;3.90;;
37945;SDS011;23769;52.478;13.448;2024-02-21T01:38:22;15.68;;;4.72;;
37945;SDS011;23769;52.478;13.448;2024-02-21T01:40:49;19.55;;;4.35;;
37945;SDS011;23769;52.478;13.448;2024-02-21T01:43:17;15.27;;;4.68;;
37945;SDS011;23769;52.478;13.448;2024-02-21T01:45:49;16.30;;;4.28;;
37945;SDS011;23769;52.478;13.448;2024-02-21T01:48:18;17.88;;;4.13;;
37945;SDS011;23769;52.478;13.448;2024-02-21T01:50:46;15.45;;;4.50;;
37945;SDS011;23769;52.478;13.448;2024-02-21T01:53:14;17.90;;;4.32;;
37945;SDS011;23769;52.478;13.448;2024-02-21T01:55:44;13.48;;;3.80;;
37945;SDS011;23769;52.478;13.448;2024-02-21T01:58:11;10.70;;;2.95;;
37945;SDS011;23769;52.478;13.448;2024-02-21T02:00:39;15.30;;;3.83;;
37945;SDS011;23769;52.478;13.448;2024-02-21T02:03:07;18.92;;;4.53;;
37945;SDS011;23769;52.478;13.448;2024-02-21T02:05:43;16.88;;;3.85;;
37945;SDS011;23769;52.478;13.448;2024-02-21T02:08:11;14.50;;;4.45;;
37945;SDS011;23769;52.478;13.448;2024-02-21T02:10:38;15.85;;;4.05;;
37945;SDS011;23769;52.478;13.448;2024-02-21T02:13:06;15.40;;;5.07;;
37945;SDS011;23769;52.478;13.448;2024-02-21T02:15:39;14.77;;;3.33;;
37945;SDS011;23769;52.478;13.448;2024-02-21T02:18:07;11.30;;;3.90;;
37945;SDS011;23769;52.478;13.448;2024-02-21T02:20:34;9.40;;;3.10;;
37945;SDS011;23769;52.478;13.448;2024-02-21T02:23:05;15.05;;;3.72;;
37945;SDS011;23769;52.478;13.448;2024-02-21T02:25:36;10.40;;;4.00;;
37945;SDS011;23769;52.478;13.448;2024-02-21T02:28:03;14.40;;;3.95;;
37945;SDS011;23769;52.478;13.448;2024-02-21T02:30:31;14.90;;;3.30;;
37945;SDS011;23769;52.478;13.448;2024-02-21T02:33:01;16.05;;;4.20;;
37945;SDS011;23769;52.478;13.448;2024-02-21T02:35:28;20.42;;;4.70;;
37945;SDS011;23769;52.478;13.448;2024-02-21T02:37:55;17.67;;;4.40;;
37945;SDS011;23769;52.478;13.448;2024-02-21T02:40:23;16.42;;;4.53;;
37945;SDS011;23769;52.478;13.448;2024-02-21T02:42:51;15.35;;;4.57;;
37945;SDS011;23769;52.478;13.448;2024-02-21T02:45:22;19.70;;;4.63;;
37945;SDS011;23769;52.478;13.448;2024-02-21T02:47:51;15.38;;;3.83;;
37945;SDS011;23769;52.478;13.448;2024-02-21T02:50:19;15.50;;;4.07;;
37945;SDS011;23769;52.478;13.448;2024-02-21T02:52:46;13.85;;;4.60;;
37945;SDS011;23769;52.478;13.448;2024-02-21T02:55:14;14.07;;;4.47;;
37945;SDS011;23769;52.478;13.448;2024-02-21T02:57:41;11.73;;;4.18;;
37945;SDS011;23769;52.478;13.448;2024-02-21T03:00:11;15.57;;;4.38;;
37945;SDS011;23769;52.478;13.448;2024-02-21T03:02:39;15.77;;;4.30;;
37945;SDS011;23769;52.478;13.448;2024-02-21T03:05:11;18.02;;;4.82;;
37945;SDS011;23769;52.478;13.448;2024-02-21T03:07:39;18.10;;;5.15;;
37945;SDS011;23769;52.478;13.448;2024-02-21T03:10:07;12.95;;;4.10;;
37945;SDS011;23769;52.478;13.448;2024-02-21T03:12:34;13.02;;;4.28;;
37945;SDS011;23769;52.478;13.448;2024-02-21T03:15:01;13.48;;;4.20;;
37945;SDS011;23769;52.478;13.448;2024-02-21T03:17:30;16.40;;;5.10;;
37945;SDS011;23769;52.478;13.448;2024-02-21T03:19:59;15.60;;;4.93;;
37945;SDS011;23769;52.478;13.448;2024-02-21T03:22:26;15.77;;;4.93;;
37945;SDS011;23769;52.478;13.448;2024-02-21T03:24:53;16.70;;;4.47;;
37945;SDS011;23769;52.478;13.448;2024-02-21T03:27:21;24.50;;;6.10;;
37945;SDS011;23769;52.478;13.448;2024-02-21T03:29:48;16.83;;;4.93;;
37945;SDS011;23769;52.478;13.448;2024-02-21T03:32:15;16.90;;;4.47;;
37945;SDS011;23769;52.478;13.448;2024-02-21T03:34:43;14.73;;;4.90;;
37945;SDS011;23769;52.478;13.448;2024-02-21T03:37:11;18.40;;;5.50;;
37945;SDS011;23769;52.478;13.448;2024-02-21T03:39:39;16.38;;;4.93;;
37945;SDS011;23769;52.478;13.448;2024-02-21T03:42:06;15.68;;;4.35;;
37945;SDS011;23769;52.478;13.448;2024-02-21T03:44:33;17.65;;;5.43;;
37945;SDS011;23769;52.478;13.448;2024-02-21T03:47:01;18.70;;;5.93;;
37945;SDS011;23769;52.478;13.448;2024-02-21T03:49:28;18.90;;;5.30;;
37945;SDS011;23769;52.478;13.448;2024-02-21T03:51:57;16.55;;;6.07;;
37945;SDS011;23769;52.478;13.448;2024-02-21T03:54:24;23.05;;;5.20;;
37945;SDS011;23769;52.478;13.448;2024-02-21T03:56:51;20.30;;;5.80;;
37945;SDS011;23769;52.478;13.448;2024-02-21T03:59:19;17.00;;;4.95;;
37945;SDS011;23769;52.478;13.448;2024-02-21T04:01:47;20.35;;;5.78;;
37945;SDS011;23769;52.478;13.448;2024-02-21T04:04:18;22.23;;;5.60;;
37945;SDS011;23769;52.478;13.448;2024-02-21T04:06:46;14.75;;;4.68;;
37945;SDS011;23769;52.478;13.448;2024-02-21T04:09:14;13.55;;;4.93;;
37945;SDS011;23769;52.478;13.448;2024-02-21T04:11:42;16.40;;;5.25;;
37945;SDS011;23769;52.478;13.448;2024-02-21T04:14:09;13.50;;;5.40;;
37945;SDS011;23769;52.478;13.448;2024-02-21T04:16:36;14.60;;;4.50;;
37945;SDS011;23769;52.478;13.448;2024-02-21T04:19:04;16.50;;;4.63;;
37945;SDS011;23769;52.478;13.448;2024-02-21T04:21:31;13.35;;;5.75;;
37945;SDS011;23769;52.478;13.448;2024-02-21T04:23:58;16.98;;;5.53;;
37945;SDS011;23769;52.478;13.448;2024-02-21T04:26:28;16.90;;;5.72;;
37945;SDS011;23769;52.478;13.448;2024-02-21T04:28:55;12.18;;;4.90;;
37945;SDS011;23769;52.478;13.448;2024-02-21T04:31:22;15.27;;;5.07;;
37945;SDS011;23769;52.478;13.448;2024-02-21T04:33:50;14.57;;;5.43;;
37945;SDS011;23769;52.478;13.448;2024-02-21T04:36:17;13.65;;;4.82;;
37945;SDS011;23769;52.478;13.448;2024-02-21T04:38:44;14.35;;;5.35;;
37945;SDS011;23769;52.478;13.448;2024-02-21T04:41:12;11.82;;;5.13;;
37945;SDS011;23769;52.478;13.448;2024-02-21T04:43:40;17.58;;;5.95;;
37945;SDS011;23769;52.478;13.448;2024-02-21T04:46:07;19.38;;;6.15;;
37945;SDS011;23769;52.478;13.448;2024-02-21T04:48:35;17.35;;;5.20;;
37945;SDS011;23769;52.478;13.448;2024-02-21T04:51:02;18.27;;;6.50;;
37945;SDS011;23769;52.478;13.448;2024-02-21T04:53:30;11.57;;;5.82;;
37945;SDS011;23769;52.478;13.448;2024-02-21T04:55:57;14.70;;;5.05;;
37945;SDS011;23769;52.478;13.448;2024-02-21T04:58:24;12.55;;;5.72;;
37945;SDS011;23769;52.478;13.448;2024-02-21T05:00:53;16.55;;;5.80;;
37945;SDS011;23769;52.478;13.448;2024-02-21T05:03:20;12.52;;;5.28;;
37945;SDS011;23769;52.478;13.448;2024-02-21T05:05:47;16.92;;;5.65;;
37945;SDS011;23769;52.478;13.448;2024-02-21T05:08:15;15.55;;;5.53;;
37945;SDS011;23769;52.478;13.448;2024-02-21T05:10:43;16.40;;;5.18;;
37945;SDS011;23769;52.478;13.448;2024-02-21T05:13:10;17.42;;;5.47;;
37945;SDS011;23769;52.478;13.448;2024-02-21T05:15:37;16.05;;;5.20;;
37945;SDS011;23769;52.478;13.448;2024-02-21T05:18:06;18.45;;;5.57;;
37945;SDS011;23769;52.478;13.448;2024-02-21T05:20:33;17.52;;;6.90;;
37945;SDS011;23769;52.478;13.448;2024-02-21T05:23:01;15.85;;;6.55;;
37945;SDS011;23769;52.478;13.448;2024-02-21T05:25:29;20.42;;;5.80;;
37945;SDS011;23769;52.478;13.448;2024-02-21T05:27:56;14.93;;;6.47;;
37945;SDS011;23769;52.478;13.448;2024-02-21T05:30:27;15.52;;;5.93;;
37945;SDS011;23769;52.478;13.448;2024-02-21T05:32:54;18.20;;;6.18;;
37945;SDS011;23769;52.478;13.448;2024-02-21T05:35:26;11.98;;;5.13;;
37945;SDS011;23769;52.478;13.448;2024-02-21T05:37:53;19.45;;;6.55;;
37945;SDS011;23769;52.478;13.448;2024-02-21T05:40:20;15.25;;;6.55;;
37945;SDS011;23769;52.478;13.448;2024-02-21T05:42:48;17.65;;;6.40;;
37945;SDS011;23769;52.478;13.448;2024-02-21T05:45:16;16.33;;;5.45;;
37945;SDS011;23769;52.478;13.448;2024-02-21T05:47:43;18.40;;;5.95;;
37945;SDS011;23769;52.478;13.448;2024-02-21T05:50:11;22.25;;;6.78;;
37945;SDS011;23769;52.478;13.448;2024-02-21T05:52:39;19.27;;;6.00;;
37945;SDS011;23769;52.478;13.448;2024-02-21T05:55:07;18.15;;;6.43;;
37945;SDS011;23769;52.478;13.448;2024-02-21T05:57:34;20.23;;;6.82;;
37945;SDS011;23769;52.478;13.448;2024-02-21T06:00:03;15.65;;;6.43;;
37945;SDS011;23769;52.478;13.448;2024-02-21T06:02:30;16.67;;;6.20;;
37945;SDS011;23769;52.478;13.448;2024-02-21T06:04:58;24.10;;;7.07;;
37945;SDS011;23769;52.478;13.448;2024-02-21T06:07:25;14.07;;;6.13;;
37945;SDS011;23769;52.478;13.448;2024-02-21T06:09:53;12.15;;;5.35;;
37945;SDS011;23769;52.478;13.448;2024-02-21T06:12:21;16.77;;;6.20;;
37945;SDS011;23769;52.478;13.448;2024-02-21T06:14:48;15.55;;;5.75;;
37945;SDS011;23769;52.478;13.448;2024-02-21T06:17:17;13.70;;;5.93;;
37945;SDS011;23769;52.478;13.448;2024-02-21T06:19:48;14.35;;;6.30;;
37945;SDS011;23769;52.478;13.448;2024-02-21T06:22:15;16.42;;;6.32;;
37945;SDS011;23769;52.478;13.448;2024-02-21T06:24:45;15.18;;;6.20;;
37945;SDS011;23769;52.478;13.448;2024-02-21T06:27:13;15.25;;;6.68;;
37945;SDS011;23769;52.478;13.448;2024-02-21T06:29:41;17.77;;;6.80;;
37945;SDS011;23769;52.478;13.448;2024-02-21T06:32:09;21.38;;;7.00;;
37945;SDS011;23769;52.478;13.448;2024-02-21T06:34:36;15.13;;;6.30;;
37945;SDS011;23769;52.478;13.448;2024-02-21T06:37:03;18.90;;;6.47;;
37945;SDS011;23769;52.478;13.448;2024-02-21T06:39:30;14.82;;;6.05;;
37945;SDS011;23769;52.478;13.448;2024-02-21T06:41:57;21.25;;;6.55;;
37945;SDS011;23769;52.478;13.448;2024-02-21T06:44:26;18.75;;;6.35;;
37945;SDS011;23769;52.478;13.448;2024-02-21T06:46:53;16.65;;;6.05;;
37945;SDS011;23769;52.478;13.448;2024-02-21T06:49:20;17.50;;;6.40;;
37945;SDS011;23769;52.478;13.448;2024-02-21T06:51:48;15.57;;;6.25;;
37945;SDS011;23769;52.478;13.448;2024-02-21T06:54:15;15.85;;;5.90;;
37945;SDS011;23769;52.478;13.448;2024-02-21T06:56:42;18.15;;;6.30;;
37945;SDS011;23769;52.478;13.448;2024-02-21T06:59:09;20.42;;;6.20;;
37945;SDS011;23769;52.478;13.448;2024-02-21T07:01:45;17.63;;;6.85;;
37945;SDS011;23769;52.478;13.448;2024-02-21T07:04:12;16.90;;;7.03;;
37945;SDS011;23769;52.478;13.448;2024-02-21T07:06:40;18.17;;;6.13;;
37945;SDS011;23769;52.478;13.448;2024-02-21T07:09:07;16.23;;;6.57;;
37945;SDS011;23769;52.478;13.448;2024-02-21T07:11:34;19.10;;;7.20;;
37945;SDS011;23769;52.478;13.448;2024-02-21T07:14:01;18.65;;;6.32;;
37945;SDS011;23769;52.478;13.448;2024-02-21T07:16:28;18.40;;;7.00;;
37945;SDS011;23769;52.478;13.448;2024-02-21T07:18:59;20.17;;;9.93;;
37945;SDS011;23769;52.478;13.448;2024-02-21T07:21:26;16.65;;;6.78;;
37945;SDS011;23769;52.478;13.448;2024-02-21T07:23:53;16.52;;;6.68;;
37945;SDS011;23769;52.478;13.448;2024-02-21T07:26:20;16.42;;;6.63;;
37945;SDS011;23769;52.478;13.448;2024-02-21T07:28:47;14.18;;;6.05;;
37945;SDS011;23769;52.478;13.448;2024-02-21T07:31:15;17.13;;;6.47;;
37945;SDS011;23769;52.478;13.448;2024-02-21T07:33:42;17.38;;;6.72;;
37945;SDS011;23769;52.478;13.448;2024-02-21T07:36:11;12.73;;;5.72;;
37945;SDS011;23769;52.478;13.448;2024-02-21T07:38:38;15.00;;;5.78;;
37945;SDS011;23769;52.478;13.448;2024-02-21T07:41:05;12.80;;;5.45;;
37945;SDS011;23769;52.478;13.448;2024-02-21T07:43:33;16.48;;;5.70;;
37945;SDS011;23769;52.478;13.448;2024-02-21T07:46:00;12.75;;;6.18;;
37945;SDS011;23769;52.478;13.448;2024-02-21T07:48:27;15.02;;;6.13;;
37945;SDS011;23769;52.478;13.448;2024-02-21T07:50:54;15.70;;;6.63;;
37945;SDS011;23769;52.478;13.448;2024-02-21T07:53:23;17.23;;;5.85;;
37945;SDS011;23769;52.478;13.448;2024-02-21T07:55:50;17.77;;;5.43;;
37945;SDS011;23769;52.478;13.448;2024-02-21T07:58:17;15.10;;;5.15;;
37945;SDS011;23769;52.478;13.448;2024-02-21T08:00:44;11.77;;;5.70;;
37945;SDS011;23769;52.478;13.448;2024-02-21T08:03:12;16.23;;;6.25;;
37945;SDS011;23769;52.478;13.448;2024-02-21T08:05:40;12.98;;;5.38;;
37945;SDS011;23769;52.478;13.448;2024-02-21T08:08:07;17.90;;;5.82;;
37945;SDS011;23769;52.478;13.448;2024-02-21T08:10:36;14.48;;;5.88;;
37945;SDS011;23769;52.478;13.448;2024-02-21T08:13:03;17.45;;;7.07;;
37945;SDS011;23769;52.478;13.448;2024-02-21T08:15:31;12.70;;;5.72;;
37945;SDS011;23769;52.478;13.448;2024-02-21T08:17:58;16.23;;;5.32;;
37945;SDS011;23769;52.478;13.448;2024-02-21T08:20:27;13.85;;;6.40;;
37945;SDS011;23769;52.478;13.448;2024-02-21T08:22:54;16.30;;;6.90;;
37945;SDS011;23769;52.478;13.448;2024-02-21T08:25:21;14.88;;;5.43;;
37945;SDS011;23769;52.478;13.448;2024-02-21T08:27:50;15.32;;;7.30;;
37945;SDS011;23769;52.478;13.448;2024-02-21T08:30:17;14.55;;;6.13;;
37945;SDS011;23769;52.478;13.448;2024-02-21T08:32:45;13.20;;;6.22;;
37945;SDS011;23769;52.478;13.448;2024-02-21T08:35:12;13.60;;;6.10;;
37945;SDS011;23769;52.478;13.448;2024-02-21T08:37:39;14.40;;;6.57;;
37945;SDS011;23769;52.478;13.448;2024-02-21T08:40:08;18.08;;;7.63;;
37945;SDS011;23769;52.478;13.448;2024-02-21T08:42:36;15.18;;;6.00;;
37945;SDS011;23769;52.478;13.448;2024-02-21T08:45:05;12.15;;;6.28;;
37945;SDS011;23769;52.478;13.448;2024-02-21T08:47:32;17.15;;;6.78;;
37945;SDS011;23769;52.478;13.448;2024-02-21T08:50:01;14.02;;;6.28;;
37945;SDS011;23769;52.478;13.448;2024-02-21T08:52:31;14.00;;;6.00;;
37945;SDS011;23769;52.478;13.448;2024-02-21T08:54:58;17.30;;;6.63;;
37945;SDS011;23769;52.478;13.448;2024-02-21T08:57:25;13.43;;;6.63;;
37945;SDS011;23769;52.478;13.448;2024-02-21T08:59:52;14.27;;;5.63;;
37945;SDS011;23769;52.478;13.448;2024-02-21T09:02:21;11.85;;;6.78;;
37945;SDS011;23769;52.478;13.448;2024-02-21T09:04:48;12.77;;;5.63;;
37945;SDS011;23769;52.478;13.448;2024-02-21T09:07:15;15.23;;;5.82;;
37945;SDS011;23769;52.478;13.448;2024-02-21T09:09:43;13.65;;;5.85;;
37945;SDS011;23769;52.478;13.448;2024-02-21T09:12:10;17.90;;;7.00;;
37945;SDS011;23769;52.478;13.448;2024-02-21T09:14:40;14.55;;;6.00;;
37945;SDS011;23769;52.478;13.448;2024-02-21T09:17:07;17.45;;;7.03;;
37945;SDS011;23769;52.478;13.448;2024-02-21T09:19:36;16.05;;;6.75;;
37945;SDS011;23769;52.478;13.448;2024-02-21T09:22:03;11.00;;;5.93;;
37945;SDS011;23769;52.478;13.448;2024-02-21T09:24:31;16.25;;;7.15;;
37945;SDS011;23769;52.478;13.448;2024-02-21T09:26:58;13.63;;;6.03;;
37945;SDS011;23769;52.478;13.448;2024-02-21T09:29:25;13.43;;;6.85;;
37945;SDS011;23769;52.478;13.448;2024-02-21T09:31:53;16.05;;;6.50;;
37945;SDS011;23769;52.478;13.448;2024-02-21T09:34:20;20.17;;;7.13;;
37945;SDS011;23769;52.478;13.448;2024-02-21T09:36:48;17.67;;;7.72;;
37945;SDS011;23769;52.478;13.448;2024-02-21T09:39:16;15.50;;;7.18;;
37945;SDS011;23769;52.478;13.448;2024-02-21T09:41:45;16.77;;;7.13;;
37945;SDS011;23769;52.478;13.448;2024-02-21T09:44:15;16.35;;;7.22;;
37945;SDS011;23769;52.478;13.448;2024-02-21T09:46:43;15.80;;;6.97;;
37945;SDS011;23769;52.478;13.448;2024-02-21T09:49:13;12.80;;;6.82;;
37945;SDS011;23769;52.478;13.448;2024-02-21T09:51:46;16.42;;;8.23;;
37945;SDS011;23769;52.478;13.448;2024-02-21T09:54:15;18.42;;;8.35;;
37945;SDS011;23769;52.478;13.448;2024-02-21T09:56:44;11.50;;;6.53;;
37945;SDS011;23769;52.478;13.448;2024-02-21T09:59:12;16.05;;;6.97;;
37945;SDS011;23769;52.478;13.448;2024-02-21T10:01:39;16.65;;;8.05;;
37945;SDS011;23769;52.478;13.448;2024-02-21T10:04:07;14.02;;;6.68;;
37945;SDS011;23769;52.478;13.448;2024-02-21T10:06:34;15.52;;;6.60;;
37945;SDS011;23769;52.478;13.448;2024-02-21T10:09:02;16.02;;;7.55;;
37945;SDS011;23769;52.478;13.448;2024-02-21T10:11:30;15.68;;;7.35;;
37945;SDS011;23769;52.478;13.448;2024-02-21T10:14:03;11.23;;;6.72;;
37945;SDS011;23769;52.478;13.448;2024-02-21T10:16:31;13.25;;;7.20;;
37945;SDS011;23769;52.478;13.448;2024-02-21T10:18:58;14.25;;;6.55;;
37945;SDS011;23769;52.478;13.448;2024-02-21T10:21:26;14.05;;;6.45;;
37945;SDS011;23769;52.478;13.448;2024-02-21T10:23:53;13.82;;;6.38;;
37945;SDS011;23769;52.478;13.448;2024-02-21T10:26:20;16.73;;;6.65;;
37945;SDS011;23769;52.478;13.448;2024-02-21T10:28:49;13.35;;;7.30;;
37945;SDS011;23769;52.478;13.448;2024-02-21T10:31:23;12.82;;;6.28;;
37945;SDS011;23769;52.478;13.448;2024-02-21T10:33:54;12.07;;;6.47;;
37945;SDS011;23769;52.478;13.448;2024-02-21T10:36:23;10.25;;;6.25;;
37945;SDS011;23769;52.478;13.448;2024-02-21T10:38:50;12.85;;;6.72;;
37945;SDS011;23769;52.478;13.448;2024-02-21T10:41:19;13.27;;;6.68;;
37945;SDS011;23769;52.478;13.448;2024-02-21T10:43:49;13.48;;;6.95;;
37945;SDS011;23769;52.478;13.448;2024-02-21T10:46:18;14.20;;;7.72;;
37945;SDS011;23769;52.478;13.448;2024-02-21T10:48:45;13.63;;;6.55;;
37945;SDS011;23769;52.478;13.448;2024-02-21T10:51:16;14.05;;;6.35;;
37945;SDS011;23769;52.478;13.448;2024-02-21T10:53:45;14.50;;;6.60;;
37945;SDS011;23769;52.478;13.448;2024-02-21T10:56:16;14.50;;;7.20;;
37945;SDS011;23769;52.478;13.448;2024-02-21T10:58:43;12.45;;;6.80;;
37945;SDS011;23769;52.478;13.448;2024-02-21T11:01:13;16.90;;;7.70;;
37945;SDS011;23769;52.478;13.448;2024-02-21T11:03:41;20.33;;;7.68;;
37945;SDS011;23769;52.478;13.448;2024-02-21T11:06:08;13.75;;;6.28;;
37945;SDS011;23769;52.478;13.448;2024-02-21T11:08:36;11.10;;;6.00;;
37945;SDS011;23769;52.478;13.448;2024-02-21T11:11:04;13.10;;;7.00;;
37945;SDS011;23769;52.478;13.448;2024-02-21T11:13:31;14.50;;;6.43;;
37945;SDS011;23769;52.478;13.448;2024-02-21T11:16:08;13.25;;;8.18;;
37945;SDS011;23769;52.478;13.448;2024-02-21T11:18:37;17.02;;;6.68;;
37945;SDS011;23769;52.478;13.448;2024-02-21T11:21:04;13.20;;;5.65;;
37945;SDS011;23769;52.478;13.448;2024-02-21T11:23:31;13.02;;;5.88;;
37945;SDS011;23769;52.478;13.448;2024-02-21T11:26:05;13.45;;;6.03;;
37945;SDS011;23769;52.478;13.448;2024-02-21T11:28:33;16.70;;;5.43;;
37945;SDS011;23769;52.478;13.448;2024-02-21T11:31:07;9.15;;;4.85;;
37945;SDS011;23769;52.478;13.448;2024-02-21T11:33:36;9.38;;;5.22;;
37945;SDS011;23769;52.478;13.448;2024-02-21T11:36:06;11.13;;;5.43;;
37945;SDS011;23769;52.478;13.448;2024-02-21T11:38:33;12.82;;;5.45;;
37945;SDS011;23769;52.478;13.448;2024-02-21T11:41:00;10.35;;;5.55;;
37945;SDS011;23769;52.478;13.448;2024-02-21T11:43:28;12.60;;;5.45;;
37945;SDS011;23769;52.478;13.448;2024-02-21T11:45:58;10.18;;;5.38;;
37945;SDS011;23769;52.478;13.448;2024-02-21T11:48:26;11.85;;;4.85;;
37945;SDS011;23769;52.478;13.448;2024-02-21T11:50:55;7.25;;;4.20;;
37945;SDS011;23769;52.478;13.448;2024-02-21T11:53:22;9.73;;;4.88;;
37945;SDS011;23769;52.478;13.448;2024-02-21T11:55:52;10.32;;;5.05;;
37945;SDS011;23769;52.478;13.448;2024-02-21T11:58:20;11.60;;;4.95;;
37945;SDS011;23769;52.478;13.448;2024-02-21T12:00:47;10.02;;;5.18;;
37945;SDS011;23769;52.478;13.448;2024-02-21T12:03:15;12.00;;;5.47;;
37945;SDS011;23769;52.478;13.448;2024-02-21T12:05:42;11.48;;;4.82;;
37945;SDS011;23769;52.478;13.448;2024-02-21T12:08:13;9.70;;;4.78;;
37945;SDS011;23769;52.478;13.448;2024-02-21T12:10:41;11.38;;;4.68;;
37945;SDS011;23769;52.478;13.448;2024-02-21T12:13:09;10.55;;;4.78;;
37945;SDS011;23769;52.478;13.448;2024-02-21T12:15:38;8.13;;;4.40;;
37945;SDS011;23769;52.478;13.448;2024-02-21T12:18:05;10.52;;;5.15;;
37945;SDS011;23769;52.478;13.448;2024-02-21T12:20:33;9.77;;;4.25;;
37945;SDS011;23769;52.478;13.448;2024-02-21T12:23:01;9.98;;;4.03;;
37945;SDS011;23769;52.478;13.448;2024-02-21T12:25:31;9.93;;;4.18;;
37945;SDS011;23769;52.478;13.448;2024-02-21T12:27:58;6.05;;;3.97;;
37945;SDS011;23769;52.478;13.448;2024-02-21T12:30:25;6.38;;;3.72;;
37945;SDS011;23769;52.478;13.448;2024-02-21T12:32:53;8.25;;;3.90;;
37945;SDS011;23769;52.478;13.448;2024-02-21T12:35:20;7.63;;;3.58;;
37945;SDS011;23769;52.478;13.448;2024-02-21T12:37:47;6.05;;;3.22;;
37945;SDS011;23769;52.478;13.448;2024-02-21T12:40:14;7.50;;;3.47;;
37945;SDS011;23769;52.478;13.448;2024-02-21T12:42:43;6.40;;;3.25;;
37945;SDS011;23769;52.478;13.448;2024-02-21T12:45:11;9.77;;;4.05;;
37945;SDS011;23769;52.478;13.448;2024-02-21T12:47:38;9.40;;;3.53;;
37945;SDS011;23769;52.478;13.448;2024-02-21T12:50:05;8.35;;;3.90;;
37945;SDS011;23769;52.478;13.448;2024-02-21T12:52:32;6.28;;;3.30;;
37945;SDS011;23769;52.478;13.448;2024-02-21T12:55:00;8.75;;;3.50;;
37945;SDS011;23769;52.478;13.448;2024-02-21T12:57:27;7.53;;;3.20;;
37945;SDS011;23769;52.478;13.448;2024-02-21T12:59:57;6.00;;;3.35;;
37945;SDS011;23769;52.478;13.448;2024-02-21T13:02:24;8.73;;;3.60;;
37945;SDS011;23769;52.478;13.448;2024-02-21T13:04:52;5.30;;;3.25;;
37945;SDS011;23769;52.478;13.448;2024-02-21T13:07:19;7.15;;;3.35;;
37945;SDS011;23769;52.478;13.448;2024-02-21T13:09:46;7.50;;;3.92;;
37945;SDS011;23769;52.478;13.448;2024-02-21T13:12:13;9.45;;;3.92;;
37945;SDS011;23769;52.478;13.448;2024-02-21T13:14:41;7.55;;;4.25;;
37945;SDS011;23769;52.478;13.448;2024-02-21T13:17:10;12.32;;;4.30;;
37945;SDS011;23769;52.478;13.448;2024-02-21T13:19:37;7.43;;;3.78;;
37945;SDS011;23769;52.478;13.448;2024-02-21T13:22:05;9.30;;;3.97;;
37945;SDS011;23769;52.478;13.448;2024-02-21T13:24:32;8.68;;;3.47;;
37945;SDS011;23769;52.478;13.448;2024-02-21T13:27:00;11.85;;;4.10;;
37945;SDS011;23769;52.478;13.448;2024-02-21T13:29:28;9.75;;;4.50;;
37945;SDS011;23769;52.478;13.448;2024-02-21T13:31:55;9.27;;;3.70;;
37945;SDS011;23769;52.478;13.448;2024-02-21T13:34:24;12.30;;;5.63;;
37945;SDS011;23769;52.478;13.448;2024-02-21T13:36:51;9.90;;;4.18;;
37945;SDS011;23769;52.478;13.448;2024-02-21T13:39:18;6.97;;;3.72;;
37945;SDS011;23769;52.478;13.448;2024-02-21T13:41:45;7.38;;;3.60;;
37945;SDS011;23769;52.478;13.448;2024-02-21T13:44:13;7.88;;;4.18;;
37945;SDS011;23769;52.478;13.448;2024-02-21T13:46:40;11.80;;;4.75;;
37945;SDS011;23769;52.478;13.448;2024-02-21T13:49:08;9.25;;;3.45;;
37945;SDS011;23769;52.478;13.448;2024-02-21T13:51:37;9.20;;;4.55;;
37945;SDS011;23769;52.478;13.448;2024-02-21T13:54:06;9.23;;;3.65;;
37945;SDS011;23769;52.478;13.448;2024-02-21T13:56:37;8.85;;;3.95;;
37945;SDS011;23769;52.478;13.448;2024-02-21T13:59:04;9.77;;;3.97;;
37945;SDS011;23769;52.478;13.448;2024-02-21T14:01:31;8.38;;;4.25;;
37945;SDS011;23769;52.478;13.448;2024-02-21T14:03:59;11.93;;;5.13;;
37945;SDS011;23769;52.478;13.448;2024-02-21T14:06:26;13.98;;;6.75;;
37945;SDS011;23769;52.478;13.448;2024-02-21T14:08:54;9.70;;;4.45;;
37945;SDS011;23769;52.478;13.448;2024-02-21T14:11:22;9.18;;;4.30;;
37945;SDS011;23769;52.478;13.448;2024-02-21T14:13:49;9.52;;;4.38;;
37945;SDS011;23769;52.478;13.448;2024-02-21T14:16:16;7.90;;;3.42;;
37945;SDS011;23769;52.478;13.448;2024-02-21T14:18:43;8.75;;;3.30;;
37945;SDS011;23769;52.478;13.448;2024-02-21T14:21:11;10.50;;;3.97;;
37945;SDS011;23769;52.478;13.448;2024-02-21T14:23:38;8.38;;;3.42;;
37945;SDS011;23769;52.478;13.448;2024-02-21T14:26:07;8.48;;;4.15;;
37945;SDS011;23769;52.478;13.448;2024-02-21T14:28:34;11.02;;;3.50;;